Time;durP1;ratioP1;P1;durP2;ratioP2;P2;SDS_P1;SDS_P2;PMS_P1;PMS_P2;Temp;Humidity;BMP_temperature;BMP_pressure;BME280_temperature;BME280_humidity;BME280_pressure;Samples;Min_cycle;Max_cycle;Signal;HPM_P1;HPM_P2
2023/02/07 08:32:09;;;;;;;12.65;11.40;;;;;;;9.69;39.10;96138.16;4888539;27;1435944;-79
2023/02/07 08:34:36;;;;;;;13.77;12.48;;;;;;;9.49;39.30;96145.09;4988062;28;20063;-80
2023/02/07 08:37:04;;;;;;;13.13;11.93;;;;;;;11.15;36.85;96132.47;5074153;28;20033;-80
2023/02/07 08:39:30;;;;;;;13.23;12.02;;;;;;;11.58;35.71;96132.63;5075784;28;20024;-80
2023/02/07 08:41:56;;;;;;;10.95;9.88;;;;;;;12.05;35.05;96126.28;5086012;28;20052;-81
2023/02/07 08:44:22;;;;;;;11.50;10.50;;;;;;;8.86;39.00;96133.34;5107300;28;20032;-80
2023/02/07 08:46:47;;;;;;;11.85;10.77;;;;;;;9.20;39.01;96133.06;5068505;28;20032;-80
2023/02/07 08:49:13;;;;;;;15.23;11.57;;;;;;;10.00;38.18;96137.06;5071125;28;20049;-79
2023/02/07 08:51:40;;;;;;;13.57;12.13;;;;;;;8.85;39.31;96164.50;5055734;28;20067;-80
2023/02/07 08:54:06;;;;;;;11.35;10.25;;;;;;;6.90;44.95;96155.50;5074071;28;20025;-80
2023/02/07 08:56:31;;;;;;;13.10;11.38;;;;;;;5.29;46.12;96128.16;5061753;28;20115;-79
2023/02/07 08:58:57;;;;;;;13.35;11.93;;;;;;;1.90;53.31;96132.41;5060859;28;20078;-78
2023/02/07 09:01:22;;;;;;;14.75;11.77;;;;;;;2.36;55.08;96171.41;5064424;28;20092;-79
2023/02/07 09:03:48;;;;;;;13.25;11.35;;;;;;;1.29;60.26;96171.59;5042545;28;20025;-78
2023/02/07 09:06:14;;;;;;;13.23;11.00;;;;;;;1.13;62.79;96157.22;5021608;28;20021;-79
2023/02/07 09:08:42;;;;;;;16.25;11.50;;;;;;;1.25;62.07;96151.47;5024985;28;20486;-79
2023/02/07 09:11:07;;;;;;;13.30;11.90;;;;;;;1.36;63.21;96139.75;5019516;28;20044;-78
2023/02/07 09:13:33;;;;;;;13.88;10.88;;;;;;;1.75;61.64;96146.88;5017953;28;20025;-79
2023/02/07 09:15:59;;;;;;;12.95;10.52;;;;;;;1.78;57.87;96135.66;5033970;28;20119;-78
2023/02/07 09:18:25;;;;;;;15.65;10.60;;;;;;;1.42;60.12;96157.25;5014373;28;20030;-78
2023/02/07 09:20:51;;;;;;;12.80;11.15;;;;;;;1.55;61.49;96163.31;5027395;28;20034;-78
2023/02/07 09:23:17;;;;;;;18.33;11.73;;;;;;;7.09;47.08;96165.19;5010586;28;20036;-78
2023/02/07 09:25:44;;;;;;;12.48;11.15;;;;;;;6.53;44.36;96162.63;5016300;28;20037;-79
2023/02/07 09:28:09;;;;;;;12.52;11.30;;;;;;;9.32;39.79;96156.06;5050172;28;20045;-78
2023/02/07 09:30:36;;;;;;;13.27;11.25;;;;;;;4.27;48.68;96162.63;5016703;28;20084;-79
2023/02/07 09:33:01;;;;;;;11.98;10.38;;;;;;;6.96;46.52;96167.09;5035572;28;20021;-79
2023/02/07 09:35:27;;;;;;;11.68;10.48;;;;;;;5.62;45.07;96161.66;5025709;28;20036;-79
2023/02/07 09:37:53;;;;;;;13.98;11.20;;;;;;;1.84;57.01;96165.94;5029395;28;20125;-78
2023/02/07 09:40:19;;;;;;;16.27;12.82;;;;;;;1.41;60.06;96163.25;5034627;28;20569;-78
2023/02/07 09:42:57;;;;;;;12.25;10.95;;;;;;;0.80;63.07;96177.72;5040464;28;20040;-78
2023/02/07 09:45:30;;;;;;;13.68;10.68;;;;;;;0.91;62.75;96170.31;5013779;28;20045;-78
2023/02/07 09:48:15;;;;;;;12.35;10.40;;;;;;;0.95;63.20;96170.06;5011071;28;20109;-78
2023/02/07 09:50:48;;;;;;;12.23;10.95;;;;;;;0.81;66.24;96162.31;5013029;28;20554;-77
2023/02/07 09:53:23;;;;;;;12.13;9.63;;;;;;;1.03;64.52;96162.81;4995041;28;20396;-77
2023/02/07 09:56:00;;;;;;;10.88;9.77;;;;;;;2.37;58.75;96155.16;5006995;28;20025;-77
2023/02/07 09:58:36;;;;;;;12.80;9.95;;;;;;;2.59;57.40;96151.22;5032902;28;20111;-78
2023/02/07 10:01:31;;;;;;;9.90;8.95;;;;;;;1.68;59.06;96150.69;5008794;28;20522;-78
2023/02/07 10:04:21;;;;;;;13.75;9.70;;;;;;;2.41;57.72;96143.84;5026373;28;20082;-77
2023/02/07 10:06:57;;;;;;;11.65;9.77;;;;;;;7.89;44.00;96130.38;5011771;28;20334;-77
2023/02/07 10:09:31;;;;;;;13.00;8.50;;;;;;;3.04;51.70;96129.69;5024181;28;20029;-78
2023/02/07 10:12:24;;;;;;;14.25;9.63;;;;;;;1.37;57.33;96143.94;5009365;28;20050;-78
2023/02/07 10:15:19;;;;;;;12.00;9.95;;;;;;;0.75;58.69;96132.06;5021346;28;20037;-78
2023/02/07 10:18:13;;;;;;;13.13;10.07;;;;;;;0.99;61.03;96120.56;5017754;28;20064;-77
2023/02/07 10:20:43;;;;;;;14.68;11.20;;;;;;;6.04;48.68;96115.78;5020163;28;20152;-78
2023/02/07 10:23:30;;;;;;;10.48;9.25;;;;;;;7.65;42.01;96104.81;5021363;28;20073;-78
2023/02/07 10:26:03;;;;;;;10.60;8.95;;;;;;;4.31;46.12;96106.81;5015819;28;20029;-78
2023/02/07 10:28:57;;;;;;;13.07;8.95;;;;;;;4.98;45.29;96108.13;5016104;28;20268;-78
2023/02/07 10:31:25;;;;;;;10.02;8.63;;;;;;;5.80;44.24;96103.81;5022291;28;20076;-77
2023/02/07 10:34:01;;;;;;;10.18;8.75;;;;;;;7.14;42.27;96096.94;5013426;28;20030;-78
2023/02/07 10:36:32;;;;;;;10.55;7.90;;;;;;;4.08;47.48;96096.38;5019904;28;20036;-78
2023/02/07 10:39:22;;;;;;;9.30;8.25;;;;;;;3.02;51.16;96102.53;5021725;28;20055;-77
2023/02/07 10:41:47;;;;;;;10.98;9.80;;;;;;;2.67;53.43;96105.56;5023333;28;20052;-77
2023/02/07 10:44:17;;;;;;;10.52;9.45;;;;;;;2.83;53.01;96102.88;4992153;28;20041;-78
2023/02/07 10:46:44;;;;;;;9.20;6.95;;;;;;;2.58;51.98;96107.84;5019864;28;20034;-78
2023/02/07 10:49:22;;;;;;;7.75;7.05;;;;;;;2.46;51.19;96108.59;5021692;28;20034;-80
2023/02/07 10:51:49;;;;;;;8.45;7.57;;;;;;;1.41;50.93;96098.69;5002035;28;20092;-77
2023/02/07 10:54:19;;;;;;;10.18;7.53;;;;;;;1.15;53.13;96104.41;5013863;28;20127;-77
2023/02/07 10:56:49;;;;;;;11.25;8.13;;;;;;;0.65;53.26;96102.06;5015028;28;20034;-77
2023/02/07 10:59:37;;;;;;;8.30;7.50;;;;;;;0.29;54.34;96108.19;5003504;28;20642;-77
2023/02/07 11:02:32;;;;;;;8.73;7.78;;;;;;;1.08;53.03;96093.72;5022288;28;20585;-77
2023/02/07 11:05:00;;;;;;;7.97;7.25;;;;;;;1.07;52.13;96089.53;5016689;28;20036;-77
2023/02/07 11:07:27;;;;;;;11.27;7.20;;;;;;;1.06;53.33;96091.25;4995633;28;20065;-77
2023/02/07 11:10:16;;;;;;;7.25;6.50;;;;;;;1.70;52.04;96081.69;5012304;28;20036;-77
2023/02/07 11:12:49;;;;;;;7.13;6.43;;;;;;;1.58;51.42;96078.91;5012409;28;20057;-78
2023/02/07 11:15:18;;;;;;;7.97;6.05;;;;;;;2.01;51.41;96071.31;4994796;28;20289;-77
2023/02/07 11:17:49;;;;;;;6.68;5.82;;;;;;;1.74;51.36;96078.03;5028541;28;20112;-78
2023/02/07 11:20:27;;;;;;;5.88;5.32;;;;;;;1.37;52.43;96069.13;5032153;28;20034;-77
2023/02/07 11:22:54;;;;;;;7.03;6.23;;;;;;;1.19;52.87;96067.63;5020131;28;20077;-76
2023/02/07 11:25:29;;;;;;;8.80;5.88;;;;;;;1.07;53.91;96069.13;4996463;28;20030;-77
2023/02/07 11:27:55;;;;;;;8.70;6.88;;;;;;;0.91;54.40;96069.16;5010576;28;20413;-77
2023/02/07 11:30:21;;;;;;;6.55;5.80;;;;;;;0.55;52.94;96072.91;5016696;28;20034;-77
2023/02/07 11:33:04;;;;;;;6.57;5.97;;;;;;;0.14;52.98;96065.72;4990700;28;20037;-77
2023/02/07 11:35:30;;;;;;;8.25;6.55;;;;;;;0.56;54.13;96070.25;4989235;28;20045;-77
2023/02/07 11:38:03;;;;;;;7.22;6.53;;;;;;;0.63;56.58;96069.03;4998164;28;20043;-77
2023/02/07 11:40:40;;;;;;;9.27;7.50;;;;;;;0.62;56.57;96071.66;4996375;28;20037;-77
2023/02/07 11:43:14;;;;;;;9.10;7.07;;;;;;;0.34;56.50;96060.41;5023781;28;20107;-77
2023/02/07 11:45:43;;;;;;;12.20;8.20;;;;;;;0.59;57.37;96052.25;5005920;28;20026;-77
2023/02/07 11:48:20;;;;;;;17.77;10.98;;;;;;;0.50;59.13;96055.31;5015385;28;20021;-77
2023/02/07 13:01:57;;;;;;;10.23;6.97;;;;;;;-0.16;59.54;96044.41;5997332;23;21035;31
2023/02/07 13:04:35;;;;;;;8.38;5.90;;;;;;;-0.13;58.10;96041.72;4884167;29;20057;-77
2023/02/07 13:07:41;;;;;;;8.93;6.95;;;;;;;-0.23;59.35;96041.38;4882231;29;20132;-78
2023/02/07 13:10:24;;;;;;;8.15;6.70;;;;;;;-0.19;58.75;96044.53;4882244;29;20041;-78
2023/02/07 13:13:20;;;;;;;11.20;7.57;;;;;;;-0.14;60.27;96040.06;4869599;29;20033;-78
2023/02/07 13:16:09;;;;;;;10.52;8.15;;;;;;;-0.07;61.43;96038.84;4867651;29;20053;-78
2023/02/07 13:18:45;;;;;;;18.70;14.15;;;;;;;0.27;62.64;96036.16;4867810;29;20025;-79
2023/02/07 13:21:17;;;;;;;16.52;11.77;;;;;;;0.67;61.47;96046.75;4870864;29;20033;-77
2023/02/07 13:23:45;;;;;;;18.70;13.85;;;;;;;0.83;62.64;96042.47;4872564;29;20574;-79
2023/02/07 13:26:18;;;;;;;21.10;12.00;;;;;;;0.62;61.86;96041.06;4875113;29;20033;-80
2023/02/07 13:28:54;;;;;;;13.95;11.30;;;;;;;0.19;61.95;96023.03;4878817;29;20037;-80
2023/02/07 13:31:23;;;;;;;11.77;9.95;;;;;;;0.18;62.94;96043.47;4873127;29;20571;-81
2023/02/07 13:34:30;;;;;;;8.20;6.82;;;;;;;-0.10;59.33;96011.81;4903666;29;20037;-81
2023/02/07 13:36:56;;;;;;;5.75;5.20;;;;;;;-0.20;56.78;96025.94;4874622;29;20052;-80
2023/02/07 13:40:12;;;;;;;12.40;8.05;;;;;;;0.20;60.61;96050.13;4876639;29;20507;-80
2023/02/07 13:43:26;;;;;;;9.95;8.18;;;;;;;0.34;57.87;96040.03;4878539;29;20049;-77
2023/02/07 13:46:25;;;;;;;6.07;4.72;;;;;;;0.07;55.67;96041.47;4872349;29;20028;-79
2023/02/07 13:49:15;;;;;;;6.03;5.43;;;;;;;-0.32;56.43;96048.66;4877591;29;20034;-80
2023/02/07 13:52:00;;;;;;;7.97;7.15;;;;;;;-0.69;58.35;95999.63;4885653;29;20508;-79
2023/02/07 13:54:47;;;;;;;12.55;7.60;;;;;;;-0.27;60.93;96039.88;4889797;29;20092;-79
2023/02/07 14:00:23;;;;;;;10.80;5.45;;;;;;;-0.98;60.22;95986.72;4888952;29;20052;-79
2023/02/07 14:02:51;;;;;;;8.30;5.05;;;;;;;-1.19;59.48;95979.22;4876840;29;20045;-79
2023/02/07 14:05:29;;;;;;;5.15;4.65;;;;;;;-1.34;58.94;95986.78;4874083;29;20028;-77
2023/02/07 14:08:17;;;;;;;5.50;4.10;;;;;;;-1.13;57.89;96034.84;4867512;29;20416;-76
2023/02/07 14:10:53;;;;;;;4.90;4.40;;;;;;;-1.09;58.63;96027.88;4881231;29;20043;-76
2023/02/07 14:13:25;;;;;;;5.53;4.68;;;;;;;-1.20;58.69;96030.13;4867076;29;20459;-76
2023/02/07 14:15:58;;;;;;;4.65;4.22;;;;;;;-0.99;57.56;96036.72;4884022;29;20039;-76
2023/02/07 14:18:47;;;;;;;8.57;4.47;;;;;;;-0.99;57.30;96034.16;4880554;29;20467;-76
2023/02/07 14:21:18;;;;;;;4.60;4.10;;;;;;;-1.20;58.79;96042.84;4882685;29;20500;-76
2023/02/07 14:23:56;;;;;;;5.53;4.40;;;;;;;-1.34;58.38;96042.66;4865423;29;20031;-76
2023/02/07 14:26:37;;;;;;;5.55;4.60;;;;;;;-1.29;58.46;96033.13;4865498;29;20120;-76
2023/02/07 14:29:24;;;;;;;6.40;4.88;;;;;;;-1.38;58.38;96046.25;4866379;29;20093;-76
2023/02/07 14:31:55;;;;;;;5.65;4.85;;;;;;;-1.43;59.87;96035.47;4866175;29;20326;-76
2023/02/07 14:34:25;;;;;;;5.35;4.57;;;;;;;-1.63;60.80;96036.38;4866387;29;20149;-76
2023/02/07 14:36:53;;;;;;;6.40;5.25;;;;;;;-1.60;61.38;96038.78;4866624;29;20037;-75
2023/02/07 14:39:19;;;;;;;7.95;5.75;;;;;;;-1.33;62.06;96044.31;4881478;29;20021;-75
2023/02/07 14:41:46;;;;;;;8.23;5.78;;;;;;;-1.22;63.45;96042.91;4867720;29;20035;-76
2023/02/07 14:44:24;;;;;;;6.35;5.60;;;;;;;-1.19;62.95;96045.28;4865264;29;20538;-75
2023/02/07 14:46:54;;;;;;;5.63;4.70;;;;;;;-1.22;62.97;96050.50;4866747;29;20080;-76
2023/02/07 14:49:26;;;;;;;5.78;5.10;;;;;;;-1.26;62.10;96050.75;4868052;29;20127;-76
2023/02/07 14:51:57;;;;;;;5.45;4.78;;;;;;;-1.25;62.03;96034.59;4867120;29;20430;-76
2023/02/07 14:54:37;;;;;;;7.32;5.10;;;;;;;-1.31;63.26;96042.50;4867041;29;20025;-76
2023/02/07 14:57:08;;;;;;;6.00;5.20;;;;;;;-1.39;62.34;96050.50;4865931;29;20053;-76
2023/02/07 14:59:39;;;;;;;5.22;4.55;;;;;;;-1.51;63.15;96052.78;4868319;29;20661;-76
2023/02/07 15:02:32;;;;;;;5.95;5.35;;;;;;;-1.54;63.15;96047.84;4849152;29;20535;-76
2023/02/07 15:04:59;;;;;;;6.55;4.53;;;;;;;-1.62;64.05;96045.66;4879107;29;20033;-76
2023/02/07 15:07:24;;;;;;;5.75;5.10;;;;;;;-1.73;64.77;96058.84;4851087;29;20041;-78
2023/02/07 15:09:50;;;;;;;5.25;4.72;;;;;;;-1.77;64.75;96056.53;4861907;29;20059;-76
2023/02/07 15:12:24;;;;;;;6.30;4.50;;;;;;;-1.75;66.05;96063.16;4865413;29;20033;-76
2023/02/07 15:14:52;;;;;;;7.10;5.13;;;;;;;-1.86;65.91;96064.56;4864619;29;20399;-75
2023/02/07 15:17:21;;;;;;;6.20;4.70;;;;;;;-1.98;66.69;96065.06;4878543;29;20045;-76
2023/02/07 15:19:47;;;;;;;5.78;5.05;;;;;;;-1.99;67.37;96064.25;4863623;29;20526;-76
2023/02/07 15:22:24;;;;;;;6.97;4.80;;;;;;;-2.08;69.18;96061.28;4864172;29;20036;-76
2023/02/07 15:24:49;;;;;;;5.53;4.70;;;;;;;-2.22;67.34;96062.75;4867863;29;20096;-76
2023/02/07 15:27:23;;;;;;;5.68;4.80;;;;;;;-2.35;66.06;96066.69;4880547;29;20036;-76
2023/02/07 15:29:57;;;;;;;5.50;4.25;;;;;;;-2.35;63.68;96065.88;4866835;29;20515;-76
2023/02/07 15:32:34;;;;;;;4.85;4.35;;;;;;;-2.34;64.85;96070.84;4880203;29;20033;-76
2023/02/07 15:35:27;;;;;;;5.53;4.80;;;;;;;-2.50;65.92;96071.56;4879829;29;20037;-76
2023/02/07 15:37:54;;;;;;;5.65;4.50;;;;;;;-2.54;68.56;96068.38;4864200;29;20037;-76
2023/02/07 15:40:22;;;;;;;5.32;4.82;;;;;;;-2.44;77.90;96073.88;4864290;29;20035;-76
2023/02/07 15:42:57;;;;;;;6.38;5.72;;;;;;;-2.62;77.82;96064.47;4866726;29;20066;-76
2023/02/07 15:45:28;;;;;;;5.63;5.03;;;;;;;-2.73;74.46;96065.75;4880184;29;20044;-76
2023/02/07 15:48:00;;;;;;;5.70;4.78;;;;;;;-2.77;71.16;96071.03;4879406;29;20037;-77
2023/02/07 15:50:27;;;;;;;5.60;5.00;;;;;;;-2.87;71.37;96074.81;4881960;29;20192;-76
2023/02/07 15:52:58;;;;;;;6.63;4.82;;;;;;;-3.02;75.24;96076.28;4865601;29;20029;-77
2023/02/07 15:55:32;;;;;;;5.10;4.60;;;;;;;-3.17;77.20;96078.56;4859618;29;20072;-77
2023/02/07 15:57:58;;;;;;;5.57;4.97;;;;;;;-3.35;75.35;96072.53;4873802;29;20097;-76
2023/02/07 16:00:27;;;;;;;5.85;4.90;;;;;;;-3.03;74.58;96087.28;4872096;29;20480;-76
2023/02/07 16:02:59;;;;;;;6.05;4.97;;;;;;;-2.97;71.48;96084.50;4867857;29;20060;-76
2023/02/07 16:05:33;;;;;;;5.63;4.68;;;;;;;-3.11;72.53;96084.22;4851983;29;20537;-76
2023/02/07 16:08:00;;;;;;;4.90;4.40;;;;;;;-3.18;71.49;96082.81;4859910;29;20547;-76
2023/02/07 16:10:28;;;;;;;7.68;5.28;;;;;;;-3.20;72.15;96089.63;4880697;29;20124;-77
2023/02/07 16:13:02;;;;;;;8.95;6.65;;;;;;;-3.32;73.95;96087.59;4882363;29;20626;-76
2023/02/07 16:15:30;;;;;;;6.20;5.60;;;;;;;-3.46;76.93;96095.72;4865671;29;20040;-77
2023/02/07 16:17:56;;;;;;;6.70;6.00;;;;;;;-3.48;81.10;96096.66;4868440;29;20097;-77
2023/02/07 16:20:23;;;;;;;12.45;10.32;;;;;;;-3.69;81.63;96089.88;4866958;29;20112;-77
2023/02/07 16:22:49;;;;;;;11.68;9.98;;;;;;;-3.63;81.52;96098.06;4868059;29;20052;-79
2023/02/07 16:25:18;;;;;;;8.68;7.35;;;;;;;-3.65;83.08;96098.97;4879131;29;20045;-77
2023/02/07 16:27:45;;;;;;;26.58;12.80;;;;;;;-3.51;84.25;96094.25;4866657;29;20025;-80
2023/02/07 16:30:17;;;;;;;11.80;7.88;;;;;;;-3.99;83.24;96100.25;4857999;29;20045;-77
2023/02/07 16:32:43;;;;;;;29.45;15.52;;;;;;;-4.30;86.53;96094.59;4861189;29;20507;-76
2023/02/07 16:35:29;;;;;;;30.45;15.10;;;;;;;-4.05;87.66;96097.09;4867291;29;20026;-78
2023/02/07 16:37:54;;;;;;;62.80;25.63;;;;;;;-4.20;88.87;96090.88;4879768;29;20041;-77
2023/02/07 16:40:21;;;;;;;40.78;18.40;;;;;;;-4.39;88.84;96103.34;4862846;29;20025;-75
2023/02/07 16:42:47;;;;;;;37.63;17.85;;;;;;;-4.34;89.55;96105.72;4870933;29;20088;-79
2023/02/07 16:45:17;;;;;;;47.75;20.83;;;;;;;-4.29;91.03;96103.84;4880425;29;20410;-80
2023/02/07 16:47:42;;;;;;;;;;;;;;;-4.38;91.12;96107.53;4866629;29;20022;-79
2023/02/07 16:50:22;;;;;;;20.70;11.52;;;;;;;-4.41;90.28;96106.78;4879672;29;19926;-77
2023/02/07 16:52:49;;;;;;;24.90;13.05;;;;;;;-4.46;91.06;96108.63;4863889;29;20040;-77
2023/02/07 16:55:16;;;;;;;101.82;47.88;;;;;;;-4.50;90.27;96107.94;4869044;29;20045;-77
2023/02/07 16:57:43;;;;;;;49.88;26.90;;;;;;;-4.61;90.10;96110.00;4868896;29;20047;-77
2023/02/07 17:00:16;;;;;;;37.90;19.67;;;;;;;-4.75;90.81;96108.81;4871035;29;20033;-78
2023/02/07 17:02:42;;;;;;;13.75;10.27;;;;;;;-4.84;91.34;96113.28;4870841;29;20045;-77
2023/02/07 17:05:08;;;;;;;16.88;8.75;;;;;;;-5.01;92.04;96109.66;4871314;29;20029;-78
2023/02/07 17:07:34;;;;;;;23.80;12.95;;;;;;;-5.04;91.74;96117.34;4883950;29;20041;-76
2023/02/07 17:09:59;;;;;;;17.85;11.07;;;;;;;-5.04;92.21;96117.34;4869731;29;20047;-76
2023/02/07 17:12:25;;;;;;;14.27;8.35;;;;;;;-5.03;92.78;96117.25;4882441;29;20156;-77
2023/02/07 17:14:50;;;;;;;9.57;6.80;;;;;;;-5.27;93.49;96125.63;4868233;29;20029;-76
2023/02/07 17:17:16;;;;;;;8.13;5.85;;;;;;;-5.36;93.62;96123.34;4869285;29;20032;-77
2023/02/07 17:19:46;;;;;;;8.73;5.68;;;;;;;-5.46;94.24;96129.56;4872618;29;20536;-77
2023/02/07 17:22:12;;;;;;;6.63;5.18;;;;;;;-5.55;94.88;96123.09;4885892;29;20025;-77
2023/02/07 17:24:37;;;;;;;6.82;5.65;;;;;;;-5.63;95.49;96139.31;4886742;29;20041;-78
2023/02/07 17:27:02;;;;;;;6.82;5.05;;;;;;;-5.75;95.55;96138.00;4871863;29;20058;-77
2023/02/07 17:29:28;;;;;;;7.25;6.32;;;;;;;-5.85;96.06;96139.13;4885028;29;20523;-78
2023/02/07 17:31:54;;;;;;;11.02;8.02;;;;;;;-5.92;96.84;96148.56;4870308;29;20057;-77
2023/02/07 17:34:20;;;;;;;43.15;23.60;;;;;;;-6.11;97.47;96146.59;4863312;29;20475;-77
2023/02/07 17:36:48;;;;;;;24.58;16.23;;;;;;;-5.96;97.77;96146.16;4869787;29;20028;-77
2023/02/07 17:39:15;;;;;;;19.05;8.77;;;;;;;-5.99;98.40;96152.13;4885532;29;20033;-78
2023/02/07 17:41:40;;;;;;;10.20;7.82;;;;;;;-6.06;98.13;96157.38;4869254;29;20037;-77
2023/02/07 17:44:06;;;;;;;15.30;8.27;;;;;;;-6.14;98.32;96156.75;4870834;29;20029;-76
2023/02/07 17:46:32;;;;;;;10.95;8.30;;;;;;;-6.29;99.00;96150.44;4869113;29;20098;-76
2023/02/07 17:48:58;;;;;;;8.73;6.30;;;;;;;-6.24;98.51;96153.66;4883720;29;20124;-75
2023/02/07 17:51:25;;;;;;;9.35;7.45;;;;;;;-6.23;98.85;96159.53;4866637;29;20094;-75
2023/02/07 17:53:51;;;;;;;9.45;7.40;;;;;;;-6.19;98.41;96158.56;4868774;29;20032;-75
2023/02/07 17:56:27;;;;;;;7.72;6.22;;;;;;;-6.19;98.05;96154.34;4867364;29;20163;-75
2023/02/07 17:58:54;;;;;;;10.05;7.50;;;;;;;-6.25;98.34;96149.47;4881706;29;20129;-76
2023/02/07 18:01:21;;;;;;;17.52;10.52;;;;;;;-6.31;97.41;96158.91;4883954;29;20032;-75
2023/02/07 18:03:52;;;;;;;23.80;13.40;;;;;;;-6.50;97.57;96166.09;4867105;29;20040;-75
2023/02/07 18:06:19;;;;;;;28.75;17.05;;;;;;;-6.30;97.06;96171.47;4884075;29;20044;-76
2023/02/07 18:08:45;;;;;;;55.40;25.23;;;;;;;-6.19;96.40;96164.44;4865710;29;20041;-75
2023/02/07 18:11:13;;;;;;;49.85;22.65;;;;;;;-6.39;97.09;96165.84;4868021;29;20059;-76
2023/02/07 18:13:43;;;;;;;27.15;14.63;;;;;;;-6.47;97.79;96176.09;4867232;29;20045;-75
2023/02/07 18:16:12;;;;;;;25.23;14.43;;;;;;;-6.34;97.58;96179.13;4882503;29;20044;-76
2023/02/07 18:18:38;;;;;;;55.70;26.90;;;;;;;-6.44;97.77;96176.03;4865650;29;20022;-77
2023/02/07 18:21:04;;;;;;;35.58;20.02;;;;;;;-6.25;98.77;96182.22;4861663;29;20037;-76
2023/02/07 18:23:30;;;;;;;36.30;20.17;;;;;;;-6.07;98.99;96183.47;4881584;29;20116;-76
2023/02/07 18:25:56;;;;;;;39.60;21.95;;;;;;;-6.07;100.00;96180.94;4884592;29;20794;-75
2023/02/07 18:28:21;;;;;;;40.80;24.35;;;;;;;-5.96;100.00;96187.34;4876557;29;20419;-77
2023/02/07 18:30:47;;;;;;;42.60;23.42;;;;;;;-5.77;100.00;96189.31;4863356;29;20025;-75
2023/02/07 18:33:14;;;;;;;51.25;27.77;;;;;;;-5.73;100.00;96184.16;4867218;29;20136;-74
2023/02/07 18:35:40;;;;;;;53.22;30.55;;;;;;;-6.05;100.00;96181.72;4880446;29;20052;-77
2023/02/07 18:38:07;;;;;;;44.78;24.92;;;;;;;-6.05;100.00;96192.63;4863034;29;20041;-76
2023/02/07 18:40:32;;;;;;;47.83;26.65;;;;;;;-6.01;100.00;96199.25;4882753;29;20093;-76
2023/02/07 18:42:58;;;;;;;44.85;27.20;;;;;;;-6.06;100.00;96192.66;4866873;29;20128;-79
2023/02/07 18:45:23;;;;;;;50.45;27.73;;;;;;;-6.25;100.00;96184.75;4850649;29;20037;-80
2023/02/07 18:47:49;;;;;;;48.65;27.27;;;;;;;-6.16;100.00;96212.22;4864023;29;20029;-79
2023/02/07 18:50:18;;;;;;;47.60;26.90;;;;;;;-6.31;100.00;96205.06;4862629;29;20048;-77
2023/02/07 18:52:44;;;;;;;43.78;24.92;;;;;;;-6.23;100.00;96205.72;4876338;29;20830;-74
2023/02/07 18:55:09;;;;;;;48.92;27.50;;;;;;;-6.31;100.00;96206.75;4865287;29;20082;-74
2023/02/07 18:57:35;;;;;;;53.30;28.90;;;;;;;-6.51;100.00;96172.81;4866460;29;20111;-76
2023/02/07 19:00:02;;;;;;;62.55;33.45;;;;;;;-6.45;100.00;96197.03;4858289;29;20213;-77
2023/02/07 19:02:27;;;;;;;52.83;29.83;;;;;;;-6.40;100.00;96212.88;4858992;29;20045;-77
2023/02/07 19:04:53;;;;;;;54.85;28.35;;;;;;;-6.58;100.00;96210.81;4865360;29;20029;-77
2023/02/07 19:07:18;;;;;;;72.35;37.35;;;;;;;-6.51;100.00;96208.09;4881622;29;20040;-77
2023/02/07 19:09:44;;;;;;;54.75;30.85;;;;;;;-6.50;100.00;96209.75;4863817;29;20924;-76
2023/02/07 19:12:09;;;;;;;54.47;29.35;;;;;;;-6.43;100.00;96210.44;4876761;29;20041;-77
2023/02/07 19:14:34;;;;;;;56.45;29.55;;;;;;;-6.41;100.00;96199.44;4878084;29;20503;-77
2023/02/07 19:17:00;;;;;;;57.03;29.10;;;;;;;-6.62;100.00;96212.56;4865122;29;20443;-77
2023/02/07 19:19:29;;;;;;;50.95;25.05;;;;;;;-6.66;100.00;96210.97;4866031;29;20032;-77
2023/02/07 19:21:55;;;;;;;41.67;22.27;;;;;;;-6.66;100.00;96207.63;4856038;29;20503;-77
2023/02/07 19:24:22;;;;;;;44.38;22.90;;;;;;;-6.66;100.00;96213.50;4865575;29;20037;-75
2023/02/07 19:26:51;;;;;;;48.38;26.77;;;;;;;-6.65;100.00;96209.31;4863938;29;20084;-77
2023/02/07 19:29:23;;;;;;;45.42;26.40;;;;;;;-6.66;100.00;96205.94;4865618;29;20033;-77
2023/02/07 19:31:49;;;;;;;48.47;26.45;;;;;;;-6.67;100.00;96205.97;4861792;29;20156;-78
2023/02/07 19:34:14;;;;;;;56.05;29.83;;;;;;;-6.64;100.00;96213.44;4865024;29;20041;-77
2023/02/07 19:36:40;;;;;;;52.33;29.75;;;;;;;-6.62;100.00;96210.06;4866500;29;20064;-77
2023/02/07 19:39:07;;;;;;;47.55;27.02;;;;;;;-6.80;100.00;96210.47;4860993;29;20032;-75
2023/02/07 19:41:33;;;;;;;47.83;26.05;;;;;;;-6.98;100.00;96208.41;4879463;29;20033;-77
2023/02/07 19:43:59;;;;;;;46.05;25.38;;;;;;;-7.06;100.00;96206.03;4865817;29;20069;-77
2023/02/07 19:46:24;;;;;;;42.45;22.85;;;;;;;-7.23;100.00;96218.19;4867299;29;20037;-76
2023/02/07 19:48:50;;;;;;;42.15;22.30;;;;;;;-7.23;100.00;96217.34;4882339;29;20035;-77
2023/02/07 19:51:18;;;;;;;46.97;24.73;;;;;;;-7.31;100.00;96222.53;4866004;29;20511;-78
2023/02/07 19:53:45;;;;;;;44.38;22.80;;;;;;;-7.33;100.00;96219.25;4867512;29;20029;-76
2023/02/07 19:56:11;;;;;;;42.17;22.05;;;;;;;-7.57;100.00;96225.59;4863955;29;20049;-77
2023/02/07 19:58:40;;;;;;;40.85;21.45;;;;;;;-7.70;100.00;96223.34;4865579;29;20621;-76
2023/02/07 20:01:06;;;;;;;42.33;22.25;;;;;;;-7.67;100.00;96228.31;4879520;29;20045;-76
2023/02/07 20:03:32;;;;;;;40.53;23.27;;;;;;;-7.48;100.00;96217.84;4869297;29;20096;-75
2023/02/07 20:06:00;;;;;;;44.75;23.30;;;;;;;-7.63;100.00;96228.25;4866246;29;20411;-76
2023/02/07 20:08:25;;;;;;;46.85;24.83;;;;;;;-7.64;100.00;96230.81;4848701;29;20049;-75
2023/02/07 20:10:51;;;;;;;48.58;25.42;;;;;;;-7.72;100.00;96230.09;4862368;29;20093;-76
2023/02/07 20:13:16;;;;;;;51.63;27.63;;;;;;;-7.81;100.00;96231.13;4884083;29;20037;-76
2023/02/07 20:15:43;;;;;;;53.20;28.35;;;;;;;-7.76;100.00;96223.47;4866701;29;20672;-77
2023/02/07 20:18:10;;;;;;;53.35;25.48;;;;;;;-7.71;100.00;96239.31;4865056;29;20045;-77
2023/02/07 20:20:40;;;;;;;42.92;23.10;;;;;;;-7.77;100.00;96230.19;4866791;29;20350;-77
